Time;durP1;ratioP1;P1;durP2;ratioP2;P2;SDS_P1;SDS_P2;PMS_P1;PMS_P2;Temp;Humidity;BMP_temperature;BMP_pressure;BME280_temperature;BME280_humidity;BME280_pressure;Samples;Min_cycle;Max_cycle;Signal;HPM_P1;HPM_P2
2021/11/25 00:00:44;;;;;;;24.43;12.57;;;4.80;74.90;;;;;;4893067;29;20468;-41
2021/11/25 00:03:11;;;;;;;23.57;12.90;;;4.70;75.00;;;;;;4895534;29;20548;-43
2021/11/25 00:05:38;;;;;;;20.73;12.73;;;4.70;75.10;;;;;;4911205;29;20469;-42
2021/11/25 00:08:06;;;;;;;19.97;13.20;;;4.70;74.90;;;;;;4908317;29;20464;-43
2021/11/25 00:10:34;;;;;;;20.20;12.80;;;4.70;74.90;;;;;;4895010;29;20954;-42
2021/11/25 00:13:01;;;;;;;21.83;12.97;;;4.70;74.80;;;;;;4910968;29;20464;-42
2021/11/25 00:15:28;;;;;;;26.47;14.70;;;4.60;74.70;;;;;;4910245;29;20476;-42
2021/11/25 00:17:55;;;;;;;22.17;14.00;;;4.70;74.70;;;;;;4894776;29;20460;-43
2021/11/25 00:20:22;;;;;;;26.67;13.97;;;4.70;74.90;;;;;;4894662;29;20449;-41
2021/11/25 00:22:49;;;;;;;22.30;13.90;;;4.70;74.50;;;;;;4910786;29;20809;-42
2021/11/25 00:25:16;;;;;;;18.83;12.90;;;4.60;74.30;;;;;;4910880;29;21088;-43
2021/11/25 00:27:43;;;;;;;23.00;14.10;;;4.60;73.90;;;;;;4908604;29;20484;-42
2021/11/25 00:30:11;;;;;;;24.10;13.70;;;4.60;74.00;;;;;;4910597;29;20485;-42
2021/11/25 00:32:39;;;;;;;24.87;13.00;;;4.50;74.20;;;;;;4892579;29;20544;-43
2021/11/25 00:35:07;;;;;;;28.40;14.87;;;4.50;74.30;;;;;;4906038;29;20453;-41
2021/11/25 00:37:35;;;;;;;23.53;13.37;;;4.60;74.30;;;;;;4893542;29;20464;-42
2021/11/25 00:40:02;;;;;;;23.10;13.23;;;4.60;73.90;;;;;;4910315;29;20965;-42
2021/11/25 00:42:29;;;;;;;21.67;12.67;;;4.60;73.80;;;;;;4910125;29;20457;-42
2021/11/25 00:44:56;;;;;;;22.20;12.60;;;4.60;73.70;;;;;;4909600;29;20476;-42
2021/11/25 00:47:22;;;;;;;18.70;12.37;;;4.60;73.70;;;;;;4908804;29;20471;-43
2021/11/25 00:49:49;;;;;;;19.63;12.07;;;4.60;73.60;;;;;;4908421;29;20583;-42
2021/11/25 00:52:16;;;;;;;21.53;12.33;;;4.60;73.60;;;;;;4908236;29;20461;-42
2021/11/25 00:54:43;;;;;;;23.13;13.07;;;4.50;73.50;;;;;;4909320;29;20459;-42
2021/11/25 00:57:10;;;;;;;22.83;12.10;;;4.50;73.50;;;;;;4908346;29;20556;-42
2021/11/25 00:59:36;;;;;;;24.10;14.03;;;4.50;73.50;;;;;;4906486;29;20461;-42
2021/11/25 01:02:04;;;;;;;23.10;13.00;;;4.50;73.50;;;;;;4891927;29;20835;-43
2021/11/25 01:04:31;;;;;;;20.00;14.03;;;4.50;73.50;;;;;;4907420;29;20960;-42
2021/11/25 01:06:57;;;;;;;25.60;14.00;;;4.50;73.30;;;;;;4904140;29;20492;-42
2021/11/25 01:09:24;;;;;;;21.13;13.17;;;4.50;73.40;;;;;;4907446;29;20473;-42
2021/11/25 01:11:51;;;;;;;23.57;13.30;;;4.50;73.50;;;;;;4906472;29;20492;-42
2021/11/25 01:14:19;;;;;;;24.97;13.80;;;4.60;73.60;;;;;;4907959;29;20463;-42
2021/11/25 01:16:46;;;;;;;23.80;14.07;;;4.60;73.50;;;;;;4891553;29;20483;-42
2021/11/25 01:19:13;;;;;;;22.90;13.70;;;4.50;73.50;;;;;;4907154;29;20981;-42
2021/11/25 01:21:39;;;;;;;26.63;15.33;;;4.50;73.60;;;;;;4908194;29;20483;-42
2021/11/25 01:24:06;;;;;;;24.17;15.53;;;4.50;73.50;;;;;;4907534;29;20840;-42
2021/11/25 01:26:33;;;;;;;27.40;15.70;;;4.50;73.50;;;;;;4891840;29;20831;-42
2021/11/25 01:29:00;;;;;;;27.27;15.57;;;4.50;73.50;;;;;;4890849;29;20461;-42
2021/11/25 01:31:27;;;;;;;25.47;14.70;;;4.50;73.50;;;;;;4908659;29;20872;-42
2021/11/25 01:33:54;;;;;;;24.40;14.27;;;4.50;73.70;;;;;;4908062;29;21068;-43
2021/11/25 01:36:20;;;;;;;27.90;16.30;;;4.50;74.00;;;;;;4903901;29;20469;-42
2021/11/25 01:38:47;;;;;;;26.70;14.90;;;4.50;74.00;;;;;;4891882;29;20461;-42
2021/11/25 01:41:14;;;;;;;22.17;14.10;;;4.50;74.10;;;;;;4908735;29;20491;-42
2021/11/25 01:43:41;;;;;;;25.87;15.33;;;4.50;74.00;;;;;;4907847;29;20476;-43
2021/11/25 01:46:16;;;;;;;24.20;14.00;;;4.50;74.20;;;;;;4905703;29;20838;-42
2021/11/25 01:48:46;;;;;;;24.83;15.30;;;4.50;74.20;;;;;;4907328;29;20468;-42
2021/11/25 01:51:18;;;;;;;23.37;13.13;;;4.50;74.20;;;;;;4907765;29;20503;-42
2021/11/25 01:53:45;;;;;;;24.70;15.27;;;4.50;74.30;;;;;;4905717;29;20483;-42
2021/11/25 01:56:13;;;;;;;25.40;15.53;;;4.50;74.30;;;;;;4907194;29;20476;-42
2021/11/25 01:58:40;;;;;;;25.63;14.63;;;4.60;74.30;;;;;;4902230;29;20479;-42
2021/11/25 02:01:09;;;;;;;27.20;17.33;;;4.60;74.30;;;;;;4904107;29;20469;-42
2021/11/25 02:03:36;;;;;;;30.97;18.20;;;4.60;74.40;;;;;;4891202;29;20504;-42
2021/11/25 02:06:04;;;;;;;30.23;14.73;;;4.70;74.00;;;;;;4905310;29;21040;-42
2021/11/25 02:08:31;;;;;;;25.63;15.40;;;4.60;74.00;;;;;;4886426;29;20480;-42
2021/11/25 02:10:59;;;;;;;27.90;14.10;;;4.60;74.00;;;;;;4906770;29;20496;-42
2021/11/25 02:13:28;;;;;;;23.73;14.30;;;4.60;73.70;;;;;;4890353;29;20460;-42
2021/11/25 02:15:54;;;;;;;22.83;13.90;;;4.60;73.70;;;;;;4886399;29;20461;-42
2021/11/25 02:18:23;;;;;;;26.30;15.43;;;4.60;74.20;;;;;;4891511;29;20953;-42
2021/11/25 02:20:56;;;;;;;24.00;15.07;;;4.50;74.40;;;;;;4895886;29;20473;-42
2021/11/25 02:23:23;;;;;;;24.77;15.23;;;4.60;74.50;;;;;;4909465;29;21067;-41
2021/11/25 02:25:51;;;;;;;25.67;16.10;;;4.60;74.30;;;;;;4890966;29;20480;-42
2021/11/25 02:28:20;;;;;;;23.70;15.07;;;4.60;74.20;;;;;;4910274;29;20476;-43
2021/11/25 02:30:47;;;;;;;24.77;15.13;;;4.50;74.20;;;;;;4911705;29;20492;-42
2021/11/25 02:33:15;;;;;;;28.67;15.37;;;4.50;74.20;;;;;;4895459;29;20464;-43
2021/11/25 02:35:43;;;;;;;25.97;16.00;;;4.60;74.20;;;;;;4908457;29;20461;-42
2021/11/25 02:38:11;;;;;;;27.00;14.53;;;4.60;74.00;;;;;;4908880;29;20476;-42
2021/11/25 02:40:42;;;;;;;25.47;14.80;;;4.60;73.90;;;;;;4911334;29;20472;-42
2021/11/25 02:43:12;;;;;;;24.00;16.70;;;4.60;74.20;;;;;;4894392;29;20469;-42
2021/11/25 02:45:56;;;;;;;22.57;13.60;;;4.50;74.30;;;;;;4910447;29;20462;-42
2021/11/25 02:48:27;;;;;;;28.43;14.80;;;4.50;74.20;;;;;;4904507;29;20469;-42
2021/11/25 02:50:56;;;;;;;29.67;16.37;;;4.50;74.30;;;;;;4906986;29;20504;-42
2021/11/25 02:53:30;;;;;;;29.93;15.73;;;4.60;74.40;;;;;;4908871;29;20552;-42
2021/11/25 02:55:59;;;;;;;24.17;15.57;;;4.60;74.30;;;;;;4908733;29;20484;-42
2021/11/25 02:58:26;;;;;;;22.80;14.53;;;4.60;74.30;;;;;;4911110;29;20919;-42
2021/11/25 03:00:57;;;;;;;28.17;15.70;;;4.60;74.40;;;;;;4907350;29;20468;-42
2021/11/25 03:03:24;;;;;;;24.90;14.80;;;4.60;74.40;;;;;;4893824;29;20464;-42
2021/11/25 03:05:52;;;;;;;26.67;15.03;;;4.50;74.60;;;;;;4891075;29;20918;-42
2021/11/25 03:08:20;;;;;;;30.90;16.60;;;4.60;74.80;;;;;;4894581;29;20465;-42
2021/11/25 03:10:56;;;;;;;24.63;15.27;;;4.60;74.90;;;;;;4894805;29;20488;-42
2021/11/25 03:13:24;;;;;;;26.10;15.40;;;4.60;74.90;;;;;;4892343;29;20476;-42
2021/11/25 03:15:52;;;;;;;28.77;15.97;;;4.60;74.80;;;;;;4909454;29;20469;-42
2021/11/25 03:18:20;;;;;;;23.60;14.77;;;4.60;74.90;;;;;;4908576;29;20496;-42
2021/11/25 03:20:50;;;;;;;30.47;16.77;;;4.60;74.90;;;;;;4907379;29;20473;-42
2021/11/25 03:23:20;;;;;;;25.80;16.07;;;4.60;74.90;;;;;;4909722;29;20972;-42
2021/11/25 03:25:48;;;;;;;27.30;15.93;;;4.60;74.80;;;;;;4908633;29;20477;-44
2021/11/25 03:28:15;;;;;;;27.50;16.33;;;4.60;75.10;;;;;;4911314;29;20471;-44
2021/11/25 03:30:43;;;;;;;22.70;15.90;;;4.60;75.20;;;;;;4908877;29;20498;-45
2021/11/25 03:33:11;;;;;;;30.60;15.47;;;4.60;75.20;;;;;;4914888;29;20472;-44
2021/11/25 03:35:39;;;;;;;28.30;15.07;;;4.60;75.00;;;;;;4898220;29;20449;-44
2021/11/25 03:38:07;;;;;;;24.90;14.70;;;4.60;74.90;;;;;;4912317;29;20468;-44
2021/11/25 03:40:34;;;;;;;24.80;14.87;;;4.60;74.90;;;;;;4896269;29;20456;-44
2021/11/25 03:43:01;;;;;;;26.30;15.17;;;4.60;74.80;;;;;;4914411;29;20468;-44
2021/11/25 03:45:30;;;;;;;24.43;16.07;;;4.60;74.90;;;;;;4912913;29;20469;-44
2021/11/25 03:47:57;;;;;;;26.80;14.83;;;4.50;75.00;;;;;;4910018;29;20553;-44
2021/11/25 03:50:24;;;;;;;24.40;15.27;;;4.60;75.00;;;;;;4910834;29;20469;-45
2021/11/25 03:52:51;;;;;;;25.57;14.47;;;4.60;74.90;;;;;;4894991;29;20849;-45
2021/11/25 03:55:19;;;;;;;31.30;17.03;;;4.50;74.90;;;;;;4910968;29;20485;-44
2021/11/25 03:57:47;;;;;;;27.10;16.53;;;4.50;74.80;;;;;;4911569;29;20910;-44
2021/11/25 04:00:16;;;;;;;27.57;16.07;;;4.50;74.80;;;;;;4910590;29;20853;-44
2021/11/25 04:02:44;;;;;;;25.33;16.50;;;4.50;74.90;;;;;;4909461;29;20472;-44
2021/11/25 04:05:13;;;;;;;24.67;15.20;;;4.50;75.10;;;;;;4913140;29;20911;-44
2021/11/25 04:07:40;;;;;;;28.90;15.23;;;4.60;75.00;;;;;;4910570;29;20484;-44
2021/11/25 04:10:09;;;;;;;27.03;16.00;;;4.50;75.00;;;;;;4912600;29;20452;-44
2021/11/25 04:12:36;;;;;;;28.70;15.73;;;4.50;75.10;;;;;;4895149;29;20878;-44
2021/11/25 04:15:05;;;;;;;29.50;18.20;;;4.50;75.20;;;;;;4911127;29;20555;-44
2021/11/25 04:17:32;;;;;;;26.80;17.33;;;4.50;75.20;;;;;;4907856;29;20464;-44
2021/11/25 04:19:59;;;;;;;30.70;15.63;;;4.60;75.30;;;;;;4908704;29;20504;-45
2021/11/25 04:22:25;;;;;;;24.20;16.17;;;4.60;75.30;;;;;;4911309;29;20479;-43
2021/11/25 04:24:55;;;;;;;27.20;15.77;;;4.60;75.40;;;;;;4912608;29;20848;-44
2021/11/25 04:27:22;;;;;;;25.60;15.70;;;4.60;75.50;;;;;;4908809;29;20463;-44
2021/11/25 04:35:30;;;;;;;;;;;;;;;;;;;;;
2021/11/25 04:38:06;;;;;;;30.00;16.20;;;4.50;75.30;;;;;;4910533;29;20457;-45
2021/11/25 04:40:44;;;;;;;29.03;16.63;;;4.50;75.20;;;;;;4907303;29;20456;-45
2021/11/25 04:43:11;;;;;;;29.10;17.60;;;4.50;75.60;;;;;;4911707;29;20537;-45
2021/11/25 04:45:39;;;;;;;27.40;15.93;;;4.60;75.60;;;;;;4911416;29;20539;-45
2021/11/25 04:48:07;;;;;;;26.33;16.07;;;4.60;75.50;;;;;;4909833;29;20548;-44
2021/11/25 04:50:34;;;;;;;27.00;15.03;;;4.60;75.40;;;;;;4905539;29;20461;-44
2021/11/25 04:53:01;;;;;;;29.00;16.83;;;4.60;75.40;;;;;;4907445;29;20548;-44
2021/11/25 04:55:29;;;;;;;24.47;16.00;;;4.60;75.40;;;;;;4910157;29;20473;-44
2021/11/25 04:57:55;;;;;;;31.53;17.87;;;4.60;75.30;;;;;;4909903;29;20465;-45
2021/11/25 05:00:23;;;;;;;30.90;18.23;;;4.50;75.40;;;;;;4909928;29;20463;-44
2021/11/25 05:02:50;;;;;;;31.97;18.57;;;4.50;75.40;;;;;;4909917;29;20504;-44
2021/11/25 05:05:17;;;;;;;28.07;17.03;;;4.50;75.40;;;;;;4907415;29;20916;-45
2021/11/25 05:07:43;;;;;;;33.17;17.83;;;4.50;75.50;;;;;;4906816;29;20491;-45
2021/11/25 05:10:11;;;;;;;28.83;17.90;;;4.50;75.70;;;;;;4909679;29;20472;-45
2021/11/25 05:12:38;;;;;;;31.20;18.27;;;4.50;75.80;;;;;;4909836;29;20935;-44
2021/11/25 05:15:08;;;;;;;31.60;16.80;;;4.50;75.80;;;;;;4910469;29;20972;-44
2021/11/25 05:17:35;;;;;;;28.13;16.73;;;4.60;75.10;;;;;;4909411;29;20565;-44
2021/11/25 05:20:09;;;;;;;25.27;14.90;;;4.60;74.80;;;;;;4892707;29;20490;-45
2021/11/25 05:22:36;;;;;;;27.47;16.83;;;4.50;75.30;;;;;;4907872;29;20466;-44
2021/11/25 05:25:05;;;;;;;28.83;17.27;;;4.50;75.80;;;;;;4910870;29;20468;-45
2021/11/25 05:27:32;;;;;;;27.57;16.00;;;4.60;76.10;;;;;;4910104;29;20473;-43
2021/11/25 05:29:58;;;;;;;26.93;15.67;;;4.60;76.10;;;;;;4909776;29;20472;-44
2021/11/25 05:32:25;;;;;;;25.70;15.70;;;4.60;76.30;;;;;;4911475;29;20607;-45
2021/11/25 05:34:52;;;;;;;28.10;15.87;;;4.60;76.20;;;;;;4893196;29;20472;-44
2021/11/25 05:37:19;;;;;;;23.80;16.20;;;4.60;76.20;;;;;;4910696;29;20468;-44
2021/11/25 05:39:46;;;;;;;27.10;16.80;;;4.50;76.40;;;;;;4912176;29;20467;-44
2021/11/25 05:42:13;;;;;;;31.27;16.20;;;4.60;76.50;;;;;;4910463;29;20504;-44
2021/11/25 05:44:43;;;;;;;30.60;17.30;;;4.60;76.40;;;;;;4912205;29;20945;-45
2021/11/25 05:47:09;;;;;;;24.03;15.47;;;4.60;76.30;;;;;;4911342;29;20471;-45
2021/11/25 05:49:37;;;;;;;26.27;15.77;;;4.60;76.20;;;;;;4907774;29;20953;-44
2021/11/25 05:52:04;;;;;;;33.47;16.20;;;4.60;76.20;;;;;;4909497;29;20496;-44
2021/11/25 05:54:32;;;;;;;27.70;15.77;;;4.50;76.20;;;;;;4891318;29;20865;-44
2021/11/25 05:56:59;;;;;;;30.70;17.47;;;4.50;76.20;;;;;;4906422;29;20498;-44
2021/11/25 05:59:25;;;;;;;28.10;15.30;;;4.50;76.00;;;;;;4886751;29;20949;-44
2021/11/25 06:01:52;;;;;;;31.43;16.93;;;4.50;75.90;;;;;;4892349;29;20476;-44
2021/11/25 06:04:19;;;;;;;29.03;15.73;;;4.50;75.90;;;;;;4891315;29;20476;-44
2021/11/25 06:06:45;;;;;;;28.10;15.73;;;4.60;75.90;;;;;;4910159;29;20834;-44
2021/11/25 06:09:12;;;;;;;28.53;17.27;;;4.60;76.00;;;;;;4894534;29;20477;-44
2021/11/25 06:11:39;;;;;;;29.90;18.20;;;4.60;76.10;;;;;;4909658;29;20497;-44
2021/11/25 06:14:06;;;;;;;27.03;16.90;;;4.60;76.00;;;;;;4911261;29;20840;-44
2021/11/25 06:16:33;;;;;;;25.23;14.27;;;4.60;75.90;;;;;;4894813;29;20455;-44
2021/11/25 06:19:00;;;;;;;28.53;16.80;;;4.60;75.90;;;;;;4890755;29;20469;-44
2021/11/25 06:21:26;;;;;;;26.00;16.37;;;4.60;75.80;;;;;;4913298;29;20453;-44
2021/11/25 06:23:53;;;;;;;25.80;15.43;;;4.60;75.70;;;;;;4910066;29;20520;-44
2021/11/25 06:26:20;;;;;;;26.20;15.27;;;4.60;75.70;;;;;;4907187;29;20843;-44
2021/11/25 06:28:48;;;;;;;25.20;16.13;;;4.60;75.60;;;;;;4910648;29;20479;-45
2021/11/25 06:31:15;;;;;;;23.63;14.80;;;4.60;75.70;;;;;;4908157;29;20479;-45
2021/11/25 06:33:41;;;;;;;25.50;15.77;;;4.60;75.70;;;;;;4908061;29;20563;-44
2021/11/25 06:36:08;;;;;;;23.97;15.50;;;4.50;75.80;;;;;;4892906;29;20465;-45
2021/11/25 06:38:35;;;;;;;24.93;14.77;;;4.60;75.90;;;;;;4892664;29;20483;-44
2021/11/25 06:41:06;;;;;;;22.20;15.27;;;4.60;76.00;;;;;;4908882;29;20479;-44
2021/11/25 06:43:36;;;;;;;26.30;14.23;;;4.70;76.20;;;;;;4911144;29;20476;-44
2021/11/25 06:46:03;;;;;;;25.20;15.20;;;4.70;76.20;;;;;;4907824;29;20524;-44
2021/11/25 06:48:30;;;;;;;21.13;13.10;;;4.60;76.00;;;;;;4894207;29;20457;-44
2021/11/25 06:50:57;;;;;;;22.90;14.57;;;4.70;75.60;;;;;;4909779;29;20472;-45
2021/11/25 06:53:26;;;;;;;24.40;14.47;;;4.70;75.70;;;;;;4907303;29;20489;-44
2021/11/25 06:55:52;;;;;;;25.77;15.40;;;4.60;75.90;;;;;;4910013;29;20546;-44
2021/11/25 06:58:19;;;;;;;22.30;13.47;;;4.60;75.90;;;;;;4908212;29;20465;-44
2021/11/25 07:00:47;;;;;;;24.20;13.23;;;4.70;75.70;;;;;;4890555;29;20479;-45
2021/11/25 07:03:14;;;;;;;18.47;12.63;;;4.60;75.40;;;;;;4910331;29;20471;-44
2021/11/25 07:05:43;;;;;;;18.63;12.30;;;4.60;75.30;;;;;;4896368;29;20477;-44
2021/11/25 07:08:10;;;;;;;17.60;13.27;;;4.60;75.20;;;;;;4912244;29;20559;-45
2021/11/25 07:10:37;;;;;;;18.40;13.77;;;4.60;75.20;;;;;;4896077;29;20688;-44
2021/11/25 07:13:04;;;;;;;21.80;14.30;;;4.60;75.60;;;;;;4914665;29;20856;-46
2021/11/25 07:15:31;;;;;;;20.13;14.27;;;4.70;75.70;;;;;;4912848;29;20456;-44
2021/11/25 07:17:58;;;;;;;23.47;14.50;;;4.70;75.90;;;;;;4911569;29;20468;-44
2021/11/25 07:20:24;;;;;;;25.97;15.57;;;4.70;75.80;;;;;;4913947;29;20469;-44
2021/11/25 07:22:51;;;;;;;25.67;15.77;;;4.80;75.80;;;;;;4908515;29;20500;-44
2021/11/25 07:25:18;;;;;;;21.90;13.97;;;4.80;75.90;;;;;;4911858;29;20524;-44
2021/11/25 07:27:46;;;;;;;21.50;14.00;;;4.70;75.60;;;;;;4895079;29;20468;-45
2021/11/25 07:30:15;;;;;;;25.57;15.20;;;4.70;75.40;;;;;;4913310;29;20487;-45
2021/11/25 07:32:42;;;;;;;25.80;15.43;;;4.70;75.60;;;;;;4914662;29;20519;-44
2021/11/25 07:35:11;;;;;;;23.97;16.37;;;4.70;75.80;;;;;;4898881;29;20473;-44
2021/11/25 07:37:38;;;;;;;21.83;14.60;;;4.70;76.00;;;;;;4915067;29;20471;-44
2021/11/25 07:40:06;;;;;;;21.77;14.90;;;4.70;75.80;;;;;;4914435;29;20566;-44
2021/11/25 07:42:33;;;;;;;23.50;15.90;;;4.70;75.60;;;;;;4913641;29;20481;-44
2021/11/25 07:45:01;;;;;;;23.73;15.30;;;4.70;75.30;;;;;;4916256;29;20469;-44
2021/11/25 07:47:32;;;;;;;18.40;13.30;;;4.70;75.00;;;;;;4898588;29;20463;-44
2021/11/25 07:50:11;;;;;;;20.43;13.83;;;4.70;74.90;;;;;;4892451;29;20556;-44
2021/11/25 07:52:39;;;;;;;22.63;14.77;;;4.70;74.80;;;;;;4915223;29;20595;-44
2021/11/25 07:55:08;;;;;;;22.53;14.30;;;4.60;74.70;;;;;;4914661;29;20465;-45
2021/11/25 07:57:35;;;;;;;19.43;12.30;;;4.60;74.90;;;;;;4916367;29;20851;-45
2021/11/25 08:00:04;;;;;;;18.83;12.80;;;4.70;75.00;;;;;;4914491;29;20465;-45
2021/11/25 08:02:32;;;;;;;23.77;15.80;;;4.80;74.50;;;;;;4914030;29;20477;-44
2021/11/25 08:05:00;;;;;;;21.73;15.40;;;4.70;74.80;;;;;;4913404;29;20967;-45
2021/11/25 08:07:27;;;;;;;17.60;11.73;;;4.70;74.70;;;;;;4913032;29;20859;-44
2021/11/25 08:09:54;;;;;;;18.67;12.33;;;4.60;73.70;;;;;;4905155;29;20496;-44
2021/11/25 08:12:25;;;;;;;20.93;12.67;;;4.60;73.70;;;;;;4912269;29;20571;-44
2021/11/25 08:14:52;;;;;;;19.73;13.40;;;4.70;74.60;;;;;;4911479;29;20981;-44
2021/11/25 08:17:19;;;;;;;21.13;14.10;;;4.70;74.70;;;;;;4895678;29;20949;-44
2021/11/25 08:19:46;;;;;;;20.40;14.53;;;4.60;74.90;;;;;;4910507;29;20475;-44
2021/11/25 08:22:14;;;;;;;23.03;14.03;;;4.60;75.00;;;;;;4914348;29;20469;-44
2021/11/25 08:24:42;;;;;;;23.93;13.80;;;4.60;75.20;;;;;;4913066;29;20479;-44
2021/11/25 08:27:10;;;;;;;20.60;14.53;;;4.70;75.40;;;;;;4915063;29;20468;-44
2021/11/25 08:29:37;;;;;;;21.87;14.43;;;4.80;74.50;;;;;;4914031;29;20497;-45
2021/11/25 08:32:04;;;;;;;22.03;14.57;;;4.90;74.50;;;;;;4898662;29;20496;-44
2021/11/25 08:34:31;;;;;;;20.93;14.23;;;4.80;74.70;;;;;;4916120;29;20471;-43
2021/11/25 08:36:58;;;;;;;24.50;15.10;;;4.70;74.80;;;;;;4915811;29;20814;-44
2021/11/25 08:39:25;;;;;;;25.70;15.77;;;4.70;74.90;;;;;;4915856;29;20460;-44
2021/11/25 08:41:54;;;;;;;22.83;16.67;;;4.60;75.00;;;;;;4910721;29;20965;-44
2021/11/25 08:44:21;;;;;;;26.07;15.23;;;4.70;75.10;;;;;;4911961;29;20842;-44
2021/11/25 08:46:48;;;;;;;25.53;16.17;;;4.70;75.10;;;;;;4894803;29;20463;-44
2021/11/25 08:49:15;;;;;;;20.20;14.13;;;4.70;75.40;;;;;;4916049;29;20511;-44
2021/11/25 08:51:41;;;;;;;25.50;17.33;;;4.80;75.50;;;;;;4915404;29;20461;-44
2021/11/25 08:54:08;;;;;;;26.40;15.90;;;4.80;75.40;;;;;;4914853;29;20469;-44
2021/11/25 08:56:35;;;;;;;28.37;16.17;;;4.70;75.40;;;;;;4915071;29;20476;-44
2021/11/25 08:59:02;;;;;;;25.33;16.30;;;4.70;74.90;;;;;;4911356;29;20492;-44
2021/11/25 09:01:28;;;;;;;24.27;15.67;;;4.70;74.70;;;;;;4915306;29;20467;-44
2021/11/25 09:03:55;;;;;;;23.37;16.00;;;4.70;74.70;;;;;;4913467;29;20475;-44
2021/11/25 09:06:23;;;;;;;26.67;15.47;;;4.70;74.30;;;;;;4912409;29;20478;-45
2021/11/25 09:08:49;;;;;;;25.13;15.70;;;4.70;74.40;;;;;;4912934;29;20481;-44
2021/11/25 09:11:16;;;;;;;32.23;17.50;;;4.70;74.30;;;;;;4911260;29;20456;-44
2021/11/25 09:13:44;;;;;;;25.73;17.63;;;4.70;74.30;;;;;;4914314;29;20499;-44
2021/11/25 09:16:11;;;;;;;30.17;18.67;;;4.70;74.60;;;;;;4911524;29;20465;-44
2021/11/25 09:18:38;;;;;;;32.50;18.63;;;4.80;75.00;;;;;;4894182;29;20497;-44
2021/11/25 09:21:05;;;;;;;27.57;17.10;;;4.80;75.30;;;;;;4897389;29;20461;-44
2021/11/25 09:23:36;;;;;;;30.37;18.50;;;4.80;75.50;;;;;;4912647;29;20488;-44
2021/11/25 09:26:03;;;;;;;28.00;15.17;;;4.80;75.00;;;;;;4914432;29;21007;-44
2021/11/25 09:28:30;;;;;;;28.03;17.13;;;4.90;74.80;;;;;;4900070;29;20990;-44
2021/11/25 09:30:57;;;;;;;26.50;16.40;;;4.80;74.90;;;;;;4913261;29;20504;-44
2021/11/25 09:33:24;;;;;;;29.37;18.57;;;4.80;75.10;;;;;;4915071;29;20500;-44
2021/11/25 09:35:52;;;;;;;27.43;17.57;;;4.90;75.00;;;;;;4914180;29;20464;-44
2021/11/25 09:38:19;;;;;;;32.67;17.63;;;4.90;74.70;;;;;;4914624;29;20908;-45
2021/11/25 09:40:48;;;;;;;28.67;18.30;;;4.90;74.50;;;;;;4898802;29;20465;-43
2021/11/25 09:43:21;;;;;;;29.13;16.77;;;4.90;74.50;;;;;;4913925;29;20515;-44
2021/11/25 09:45:50;;;;;;;28.33;17.33;;;4.90;74.50;;;;;;4912909;29;20474;-45
2021/11/25 09:48:19;;;;;;;27.53;17.53;;;5.00;74.40;;;;;;4915209;29;20476;-45
2021/11/25 09:50:49;;;;;;;29.03;17.30;;;5.00;74.30;;;;;;4914183;29;20475;-44
2021/11/25 09:53:19;;;;;;;31.10;17.67;;;5.00;74.00;;;;;;4911712;29;20500;-44
2021/11/25 09:55:48;;;;;;;27.10;16.67;;;5.00;74.20;;;;;;4911955;29;20489;-44
2021/11/25 09:58:17;;;;;;;25.30;17.60;;;5.10;73.70;;;;;;4911000;29;20544;-44
2021/11/25 10:00:49;;;;;;;27.93;16.40;;;5.00;73.50;;;;;;4910632;29;20843;-44
2021/11/25 10:03:17;;;;;;;26.83;17.60;;;5.00;73.70;;;;;;4896113;29;20560;-44
2021/11/25 10:05:52;;;;;;;30.47;18.50;;;4.90;73.40;;;;;;4911943;29;20472;-44
2021/11/25 10:08:30;;;;;;;29.97;18.60;;;4.90;73.70;;;;;;4897704;29;20479;-45
2021/11/25 10:11:00;;;;;;;27.73;18.50;;;4.90;74.10;;;;;;4899973;29;20465;-44
2021/11/25 10:14:02;;;;;;;24.87;16.27;;;4.90;74.20;;;;;;4914453;29;20488;-44
2021/11/25 10:16:39;;;;;;;29.60;19.20;;;4.90;74.10;;;;;;4894684;29;20507;-44
2021/11/25 10:19:16;;;;;;;27.30;18.17;;;4.90;74.50;;;;;;4911977;29;20467;-44
2021/11/25 10:21:53;;;;;;;25.97;16.07;;;5.00;74.80;;;;;;4911116;29;20495;-44
2021/11/25 10:24:34;;;;;;;27.53;16.47;;;5.00;74.70;;;;;;4894825;29;20468;-44
2021/11/25 10:27:17;;;;;;;24.67;15.57;;;5.00;74.70;;;;;;4913193;29;20453;-44
2021/11/25 10:29:47;;;;;;;25.43;17.23;;;5.00;74.90;;;;;;4911015;29;20456;-44
2021/11/25 10:32:20;;;;;;;33.07;18.20;;;5.00;74.70;;;;;;4912861;29;20600;-45
2021/11/25 10:35:06;;;;;;;28.03;17.70;;;5.00;74.50;;;;;;4912129;29;21010;-43
2021/11/25 10:37:52;;;;;;;26.80;17.87;;;5.00;74.30;;;;;;4912400;29;20487;-44
2021/11/25 10:40:26;;;;;;;29.63;17.00;;;5.00;74.80;;;;;;4914166;29;20464;-44
2021/11/25 10:42:53;;;;;;;28.07;18.50;;;5.10;74.70;;;;;;4919291;29;20559;-44
2021/11/25 10:45:21;;;;;;;27.80;15.47;;;5.10;74.60;;;;;;4917850;29;20471;-44
2021/11/25 10:48:04;;;;;;;29.83;16.73;;;5.10;74.70;;;;;;4909806;29;20469;-44
2021/11/25 10:50:33;;;;;;;24.83;15.63;;;5.10;74.60;;;;;;4916503;29;20453;-44
2021/11/25 10:53:09;;;;;;;31.17;18.40;;;5.10;74.60;;;;;;4914200;29;20490;-44
2021/11/25 10:55:38;;;;;;;26.40;15.40;;;5.10;74.40;;;;;;4899930;29;21069;-44
2021/11/25 10:58:06;;;;;;;25.63;15.80;;;5.10;74.40;;;;;;4917975;29;20460;-44
2021/11/25 11:00:42;;;;;;;29.10;18.93;;;5.10;74.30;;;;;;4918176;29;20472;-44
2021/11/25 11:03:23;;;;;;;25.77;16.00;;;5.10;74.10;;;;;;4915887;29;20468;-44
2021/11/25 11:05:52;;;;;;;22.93;14.47;;;5.10;73.80;;;;;;4916094;29;21144;-44
2021/11/25 11:08:19;;;;;;;25.10;15.47;;;5.10;73.90;;;;;;4915421;29;20496;-44
2021/11/25 11:10:52;;;;;;;22.60;14.53;;;5.20;73.90;;;;;;4915654;29;20533;-44
2021/11/25 11:19:00;;;;;;;21.93;14.10;;;5.20;73.40;;;;;;4901633;29;20464;-44
2021/11/25 11:21:52;;;;;;;25.53;14.67;;;5.20;73.60;;;;;;4918135;29;20460;-44
2021/11/25 11:24:27;;;;;;;21.87;13.47;;;5.20;73.80;;;;;;4916900;29;20489;-44
2021/11/25 11:27:02;;;;;;;23.80;14.63;;;5.20;73.80;;;;;;4918268;29;20460;-44
2021/11/25 11:29:30;;;;;;;21.30;14.40;;;5.20;73.80;;;;;;4914384;29;20472;-45
2021/11/25 11:32:00;;;;;;;23.70;13.13;;;5.20;73.90;;;;;;4918073;29;20457;-45
2021/11/25 11:34:28;;;;;;;24.20;15.07;;;5.30;73.80;;;;;;4914715;29;20556;-44
2021/11/25 11:36:57;;;;;;;23.47;13.57;;;5.30;73.70;;;;;;4918776;29;20491;-43
2021/11/25 11:39:26;;;;;;;26.30;14.23;;;5.30;73.80;;;;;;4898599;29;20833;-43
2021/11/25 11:41:57;;;;;;;19.20;12.50;;;5.30;73.60;;;;;;4918441;29;20983;-44
2021/11/25 11:44:25;;;;;;;21.93;13.23;;;5.30;73.50;;;;;;4918167;29;20465;-44
2021/11/25 11:46:56;;;;;;;20.63;14.20;;;5.30;73.40;;;;;;4918131;29;20503;-44
2021/11/25 11:49:24;;;;;;;21.87;14.03;;;5.40;73.20;;;;;;4917577;29;20479;-44
2021/11/25 11:52:09;;;;;;;18.50;13.67;;;5.40;73.30;;;;;;4885372;29;20476;-44
2021/11/25 11:54:46;;;;;;;21.63;13.07;;;5.50;73.30;;;;;;4902041;29;20508;-43
2021/11/25 11:57:32;;;;;;;17.30;11.97;;;5.50;72.90;;;;;;4915412;29;20485;-44
2021/11/25 12:00:18;;;;;;;18.40;12.43;;;5.50;73.10;;;;;;4914993;29;20579;-44
2021/11/25 12:02:51;;;;;;;20.07;12.90;;;5.50;72.90;;;;;;4915465;29;20497;-44
2021/11/25 12:05:43;;;;;;;22.40;13.63;;;5.50;72.90;;;;;;4898824;29;20466;-44
2021/11/25 12:08:19;;;;;;;19.87;12.00;;;5.50;73.00;;;;;;4914391;29;20504;-44
2021/11/25 12:10:55;;;;;;;19.97;12.73;;;5.50;72.70;;;;;;4918221;29;20518;-44
2021/11/25 12:13:24;;;;;;;20.87;12.97;;;5.60;72.60;;;;;;4915056;29;20542;-44
2021/11/25 12:16:11;;;;;;;19.67;13.20;;;5.60;72.20;;;;;;4916549;29;20831;-44
2021/11/25 12:18:38;;;;;;;18.00;11.73;;;5.50;72.70;;;;;;4912634;29;20464;-44
2021/11/25 12:21:05;;;;;;;19.60;13.60;;;5.50;72.90;;;;;;4917563;29;20463;-44
2021/11/25 12:23:37;;;;;;;19.67;12.90;;;5.50;72.20;;;;;;4917954;29;20468;-44
2021/11/25 12:26:06;;;;;;;22.93;16.17;;;5.50;72.40;;;;;;4918156;29;20591;-44
2021/11/25 12:28:40;;;;;;;17.13;12.47;;;5.50;72.90;;;;;;4916244;29;20528;-43
2021/11/25 12:31:32;;;;;;;19.83;12.00;;;5.60;73.20;;;;;;4918204;29;20457;-44
2021/11/25 12:33:54;;;;;;;20.40;13.70;;;5.60;73.30;;;;;;4914292;29;20493;-44
2021/11/25 12:36:37;;;;;;;18.23;11.90;;;5.50;73.40;;;;;;4914821;29;20469;-44
2021/11/25 12:39:37;;;;;;;18.40;12.57;;;5.50;73.20;;;;;;4916570;29;20461;-44
2021/11/25 12:42:04;;;;;;;19.80;13.30;;;5.60;72.60;;;;;;4916888;29;20491;-44
2021/11/25 12:44:37;;;;;;;18.63;13.40;;;5.60;72.70;;;;;;4916146;29;20839;-44
2021/11/25 12:47:04;;;;;;;16.80;11.50;;;5.60;72.70;;;;;;4916634;29;20469;-43
2021/11/25 12:49:31;;;;;;;16.87;11.17;;;5.60;72.50;;;;;;4916291;29;20499;-44
2021/11/25 12:51:58;;;;;;;18.13;11.40;;;5.60;72.40;;;;;;4902155;29;20496;-44
2021/11/25 12:54:25;;;;;;;19.10;11.93;;;5.60;72.10;;;;;;4900329;29;20528;-44
2021/11/25 12:56:53;;;;;;;18.20;11.27;;;5.70;72.00;;;;;;4913693;29;20501;-44
2021/11/25 12:59:19;;;;;;;17.47;10.73;;;5.70;71.80;;;;;;4916133;29;20457;-44